Los datos mostrados corresponden al resumen diario obtenido de los registros semihorarios entre las 0:00 y las 24:00 h, en horario solar.
| Estación | Fecha | V Km/h | DV | Vx Km/h | T ºC | Tn ºC | Tx ºC | H frío | HR % | Rad MJ/m2 día | H sol | P mm | ETo mm |
|---|---|---|---|---|---|---|---|---|---|---|---|---|---|
| Almoradí | 01/09/2026 | 3.72 | NE | 14.54 | 26.46 | 23.29 | 31.36 | 0 | 79.8 | 13.29 | 10.02 | 0 | 3.23 |
| Elx | 01/09/2026 | 3.51 | N | 18.14 | 27.36 | 24.26 | 31.72 | 0 | 73.99 | 13.32 | 10.41 | 0 | 3.28 |
| Callosa d'En Sarrià | 01/09/2026 | 1.11 | NE | 9.45 | 25.71 | 22.04 | 30 | 0 | 75.74 | 13.11 | 10.47 | 0 | 2.74 |
| Callosa d'En Sarrià (malla) | 01/09/2026 | 0.96 | E | 7.06 | 26.33 | 22.55 | 31.58 | 0 | 60.42 | 10.5 | 9.85 | 0 | 2.4 |
| Catral | 01/09/2026 | 3.23 | NE | 19.19 | 26.45 | 21.67 | 30.92 | 0 | 75.9 | 12.63 | 10.06 | 0 | 3.06 |
| Altea | 01/09/2026 | 4.06 | NE | 16.69 | 25.95 | 23.17 | 29.23 | 0 | 75.5 | 12.54 | 10.84 | 0 | 2.98 |
| Planes | 01/09/2026 | 2.01 | E | 14.25 | 23.49 | 17.69 | 31 | 0 | 78.5 | 15.49 | 11.05 | 0 | 3.19 |
| Villena | 01/09/2026 | 4.04 | S | 17.25 | 23.62 | 18.62 | 30.01 | 0 | 76.4 | 13.6 | 10.7 | 0 | 3.24 |
| Camp de Mirra | 01/09/2026 | 4.82 | N | 20.64 | 22.8 | 18.09 | 28.63 | 0 | 76 | 13.95 | 11.1 | 0 | 3.2 |
| Agost | 01/09/2026 | 3.36 | E | 17.29 | 25.09 | 20.82 | 29.29 | 0 | 75 | 12.72 | 10.65 | 0 | 2.97 |
| Orihuela - La Murada | 01/09/2026 | 3.24 | NE | 16.23 | 26.01 | 22.03 | 31.12 | 0 | 77.9 | 11.96 | 10.34 | 0 | 2.94 |
| Villajoyosa | 01/09/2026 | 3.49 | E | 18.21 | 26.51 | 23.1 | 30.08 | 0 | 68.86 | 13.17 | 10.38 | 0 | 3.2 |
| Ondara | 01/09/2026 | 2.19 | E | 11.78 | 25.47 | 21.19 | 30.73 | 0 | 78 | 11.55 | 10.55 | 0 | 2.68 |
| Dénia | 01/09/2026 | 2.36 | SE | 14.85 | 25.27 | 20.85 | 30.31 | 0 | 73.9 | 11.75 | 10.51 | 0 | 2.78 |
| Pinoso | 01/09/2026 | 3.57 | NE | 14.43 | 22.9 | 18.64 | 29.82 | 0 | 79.3 | 13.11 | 10.55 | 0 | 3.08 |
| Monforte del Cid | 01/09/2026 | 4.2 | E | 19.23 | 25.17 | 20.9 | 29.37 | 0 | 76.39 | 12.82 | 10.88 | 0 | 3.07 |
| Crevillent | 01/09/2026 | 4.37 | E | 17.64 | 27.12 | 24.28 | 31.01 | 0 | 72.5 | 12.76 | 10.77 | 0 | 3.35 |
| Vall d'Uixó | 30/08/2026 | 3.25 | N | 12.1 | 25.07 | 18.28 | 32.32 | 0 | 58.58 | 24.3 | 11.12 | 0 | 4.78 |
| Vila-real EEA | 01/09/2026 | 5.47 | N | 13.89 | 26.32 | 22.89 | 31.39 | 0 | 73.3 | 11.09 | 10.27 | 0 | 3.19 |
| Onda | 01/09/2026 | 4.28 | SO | 13.86 | 24.84 | 21.22 | 29.03 | 0 | 75.7 | 12.61 | 10.79 | 0 | 3 |
| Vila-Real | 01/09/2026 | 3.91 | E | 14.82 | 25.74 | 21.86 | 29.91 | 0 | 75.6 | 12.74 | 10.77 | 0 | 3.03 |
| San Rafael del Río | 01/09/2026 | 3.39 | S | 16.33 | 23.83 | 20.03 | 28.37 | 0 | 84.3 | 9.76 | 10.75 | 0 | 2.36 |
| Castelló de la Plana | 01/09/2026 | 2.22 | SO | 9.39 | 24.94 | 21.03 | 29.87 | 0 | 79 | 11.96 | 10.76 | 0 | 2.66 |
| Ribera de Cabanes | 01/09/2026 | 3.11 | SO | 13.69 | 25.68 | 22.44 | 29.96 | 0 | 42.19 | 12.36 | 10.99 | 0 | 3.37 |
| Nules | 01/09/2026 | 4.7 | E | 14.11 | 25.61 | 21.79 | 30.96 | 0 | 76.5 | 12.47 | 10.62 | 0 | 3.24 |
| Segorbe | 01/09/2026 | 1.58 | SE | 9.95 | 23.31 | 17.76 | 30.04 | 0 | 75.7 | 11.86 | 10.83 | 0 | 2.55 |
| Pedralba | 01/09/2026 | 2.32 | SE | 14.75 | 24.73 | 20.64 | 29.57 | 0 | 67.59 | 12.38 | 10.85 | 0 | 2.84 |
| Benavites | 01/09/2026 | 1.69 | E | 11.43 | 24 | 18.83 | 29.87 | 0 | 85.9 | 14.55 | 9.99 | 0 | 2.88 |
| Moncada | 01/09/2026 | 4.49 | N | 19.45 | 25.44 | 21.35 | 30.27 | 0 | 77.54 | 14.36 | 11.25 | 0 | 3.32 |
| Carcaixent | 01/09/2026 | 2.67 | N | 19.05 | 25.67 | 20.88 | 31.01 | 0 | 71.92 | 11.92 | 9.92 | 0 | 2.9 |
| Carlet | 01/09/2026 | 3.61 | N | 16.39 | 26.14 | 22.49 | 30.18 | 0 | 69.3 | 11.59 | 10.69 | 0 | 3.02 |
| Llutxent | 01/09/2026 | 5.01 | N | 28.44 | 24.06 | 20.4 | 28.58 | 0 | 82.1 | 12.33 | 10.86 | 0 | 2.96 |
| Requena | 01/09/2026 | 5.1 | N | 19.25 | 22.79 | 17.78 | 28.46 | 0 | 74.09 | 15.95 | 11.08 | 0 | 3.54 |
| Algimia de Alfara | 01/09/2026 | 2.7 | E | 13.16 | 24.92 | 20.25 | 30.74 | 0 | 73.28 | 13.02 | 10.63 | 0 | 2.97 |
| Valencia - UPV | 01/09/2026 | 3 | E | 16.3 | 25.82 | 23.44 | 28.97 | 0 | 78.6 | 9.52 | 9.07 | 0 | 2.44 |
| Algemesí | 01/09/2026 | 2.51 | NE | 12.88 | 25.24 | 22.07 | 29.63 | 0 | 83.9 | 9.51 | 9.1 | 0 | 2.31 |
| Picassent | 01/09/2026 | 2.37 | NE | 14.18 | 24.91 | 21 | 28.58 | 0 | 81.4 | 10.51 | 11.19 | 0 | 2.41 |
| Montesa | 01/09/2026 | 1.29 | NE | 14.32 | 25.01 | 20.56 | 30.44 | 0 | 76.3 | 13.08 | 9.51 | 0 | 2.75 |
| Xàtiva | 01/09/2026 | 1.89 | N | 15.42 | 25.72 | 21.67 | 30.9 | 0 | 78.6 | 13.09 | 9.99 | 0 | 2.86 |
| Llíria | 01/09/2026 | 2.98 | E | 18.24 | 25.03 | 20.76 | 30.68 | 0 | 69.49 | 15.13 | 11.02 | 0 | 3.36 |
| Sagunt | 01/09/2026 | 4.03 | N | 14.01 | 25.76 | 22.77 | 29.69 | 0 | 72.3 | 13.8 | 11.16 | 0 | 3.28 |
| Campo Arcís | 01/09/2026 | 4.9 | E | 19.9 | 23.54 | 18.96 | 28.79 | 0 | 75 | 16.41 | 11.15 | 0 | 3.61 |
| Villalonga | 01/09/2026 | 2.24 | NO | 11.36 | 25.32 | 21.55 | 30.41 | 0 | 86.9 | 10.84 | 10.6 | 0 | 2.5 |
| Gandía | 01/09/2026 | 1.95 | NE | 13.19 | 25.38 | 21.75 | 30.58 | 0 | 81.1 | 11.74 | 10.36 | 0 | 2.66 |
| Bolbaite | 01/09/2026 | 2.64 | NE | 15.74 | 24.53 | 20.21 | 29.49 | 0 | 79.3 | 11.44 | 10.06 | 0 | 2.64 |
| Bétera | 01/09/2026 | 3.78 | SE | 17.11 | 24.99 | 21.2 | 29.32 | 0 | 75.3 | 14.21 | 11.22 | 0 | 3.22 |
| Chulilla | 01/09/2026 | 3 | SE | 18.21 | 23.59 | 18.87 | 28.14 | 0 | 73.3 | 13.93 | 11.08 | 0 | 2.99 |
| Godelleta | 01/09/2026 | 2.33 | E | 15.56 | 24.68 | 20.23 | 28.64 | 0 | 75.32 | 11.83 | 10.73 | 0 | 2.63 |
| Bèlgida | 01/09/2026 | 3.07 | E | 19.65 | 24.42 | 20.18 | 31.59 | 0 | 82.8 | 14.03 | 10.99 | 0 | 3.18 |
| Polinyà de Xúquer | 01/09/2026 | 2.44 | E | 13.48 | 25.34 | 22.01 | 29.46 | 0 | 83.4 | 11.53 | 9.79 | 0 | 2.6 |
| Benifaió | 01/09/2026 | 1.9 | NE | 13.02 | 25.61 | 22.29 | 29.57 | 0 | 81.2 | 9.73 | 9.39 | 0 | 2.28 |
| Cheste | 01/09/2026 | 1.38 | SE | 11.36 | 23.95 | 18.78 | 29.93 | 0 | 72.1 | 12.62 | 9.87 | 0 | 2.65 |
| Tavernes de la Valldigna | 01/09/2026 | 2.9 | SE | 16.09 | 26.16 | 22.2 | 29.81 | 0 | 85.3 | 12.73 | 10.11 | 0 | 2.88 |
| Castelló | 01/09/2026 | 1.53 | E | 14.32 | 25.79 | 22.7 | 30.68 | 0 | 81.4 | 8.7 | 8.69 | 0 | 2.13 |
© Copyright 2011, Instituto Valenciano de Investigaciones Agrarias.
Los datos meteorológicos ofrecidos es esta página son informativos, por lo que carecen de carácter oficial. Los datos son publicados automáticamente y, por lo tanto, pueden no estar sujetos a una completa validación.
|
Cargando ...espere por favor... |